Time;durP1;ratioP1;P1;durP2;ratioP2;P2;SDS_P1;SDS_P2;PMS_P1;PMS_P2;Temp;Humidity;BMP_temperature;BMP_pressure;BME280_temperature;BME280_humidity;BME280_pressure;Samples;Min_cycle;Max_cycle;Signal;HPM_P1;HPM_P2
2022/10/05 00:00:45;;;;;;;1999.90;999.90;;;;;;;;;;5030239;28;20206;-66
2022/10/05 00:03:32;;;;;;;1999.90;999.90;;;;;;;;;;5013752;28;20235;-66
2022/10/05 00:06:17;;;;;;;1999.90;999.90;;;;;;;;;;5011547;28;20215;-67
2022/10/05 00:09:08;;;;;;;1999.90;999.90;;;;;;;;;;5011671;28;20227;-67
2022/10/05 00:11:54;;;;;;;1999.90;999.90;;;;;;;;;;5016979;28;20206;-67
2022/10/05 00:14:39;;;;;;;1999.90;999.90;;;;;;;;;;5022850;28;20723;-65
2022/10/05 00:17:27;;;;;;;1999.90;999.90;;;;;;;;;;5032592;28;20218;-65
2022/10/05 00:20:17;;;;;;;1999.90;999.90;;;;;;;;;;5029006;28;20214;-66
2022/10/05 00:23:04;;;;;;;1999.90;999.90;;;;;;;;;;5026744;28;20229;-66
2022/10/05 00:25:49;;;;;;;1999.90;999.90;;;;;;;;;;5026816;28;20209;-66
2022/10/05 00:28:34;;;;;;;1999.90;999.90;;;;;;;;;;5011733;28;20223;-66
2022/10/05 00:31:20;;;;;;;1999.90;999.90;;;;;;;;;;5011580;28;20214;-66
2022/10/05 00:34:06;;;;;;;1999.90;999.90;;;;;;;;;;5011443;28;20839;-66
2022/10/05 00:36:51;;;;;;;1999.90;999.90;;;;;;;;;;5027750;28;20348;-67
2022/10/05 00:39:38;;;;;;;1999.90;999.90;;;;;;;;;;5016297;28;20206;-66
2022/10/05 00:42:30;;;;;;;1999.90;999.90;;;;;;;;;;5027914;28;20230;-66
2022/10/05 00:45:16;;;;;;;1999.90;999.90;;;;;;;;;;5029423;28;20226;-66
2022/10/05 00:48:06;;;;;;;1999.90;999.90;;;;;;;;;;5029565;28;20292;-65
2022/10/05 00:51:01;;;;;;;1999.90;999.90;;;;;;;;;;5029565;28;20209;-66
2022/10/05 00:53:48;;;;;;;1999.90;999.90;;;;;;;;;;5015408;28;20585;-63
2022/10/05 00:56:45;;;;;;;1999.90;999.90;;;;;;;;;;5026938;28;20198;-66
2022/10/05 00:59:40;;;;;;;1999.90;999.90;;;;;;;;;;5029840;28;20580;-66
2022/10/05 01:02:27;;;;;;;1999.90;999.90;;;;;;;;;;5029868;28;20241;-67
2022/10/05 01:05:15;;;;;;;1999.90;999.90;;;;;;;;;;5028924;28;20226;-66
2022/10/05 01:08:05;;;;;;;1999.90;999.90;;;;;;;;;;5014501;28;20393;-66
2022/10/05 01:10:57;;;;;;;1999.90;999.90;;;;;;;;;;5015151;28;20211;-66
2022/10/05 01:13:48;;;;;;;1999.90;999.90;;;;;;;;;;5025905;28;20762;-64
2022/10/05 01:16:35;;;;;;;1999.90;999.90;;;;;;;;;;5014792;28;20246;-65
2022/10/05 01:19:29;;;;;;;1999.90;999.90;;;;;;;;;;5014775;28;20210;-66
2022/10/05 01:22:17;;;;;;;1999.90;999.90;;;;;;;;;;5031272;28;20325;-66
2022/10/05 01:25:10;;;;;;;1999.90;999.90;;;;;;;;;;5022249;28;20609;-66
2022/10/05 01:28:00;;;;;;;1999.90;999.90;;;;;;;;;;5014650;28;20278;-65
2022/10/05 01:30:49;;;;;;;1999.90;999.90;;;;;;;;;;5032182;28;20237;-66
2022/10/05 01:33:38;;;;;;;1999.90;999.90;;;;;;;;;;5032838;28;20245;-65
2022/10/05 01:36:29;;;;;;;1999.90;999.90;;;;;;;;;;5032414;28;20210;-65
2022/10/05 01:39:17;;;;;;;1999.90;999.90;;;;;;;;;;5032416;28;20269;-66
2022/10/05 01:42:05;;;;;;;1999.90;999.90;;;;;;;;;;5032728;28;20710;-66
2022/10/05 01:45:00;;;;;;;1999.90;999.90;;;;;;;;;;5031065;28;20266;-66
2022/10/05 01:47:46;;;;;;;1999.90;999.90;;;;;;;;;;5032794;28;20207;-65
2022/10/05 01:50:34;;;;;;;1999.90;999.90;;;;;;;;;;5032142;28;20237;-66
2022/10/05 01:53:25;;;;;;;1999.90;999.90;;;;;;;;;;5022405;28;20235;-63
2022/10/05 01:56:17;;;;;;;1999.90;999.90;;;;;;;;;;5017700;28;20206;-66
2022/10/05 01:59:10;;;;;;;1999.90;999.90;;;;;;;;;;5029237;28;20206;-66
2022/10/05 02:01:58;;;;;;;1999.90;999.90;;;;;;;;;;5026443;28;20602;-66
2022/10/05 02:04:46;;;;;;;1999.90;999.90;;;;;;;;;;5026950;28;20238;-65
2022/10/05 02:07:35;;;;;;;1999.90;999.90;;;;;;;;;;5027741;28;20221;-66
2022/10/05 02:10:23;;;;;;;1999.90;999.90;;;;;;;;;;5028178;28;20585;-65
2022/10/05 02:13:11;;;;;;;1999.90;999.90;;;;;;;;;;5031950;28;20209;-66
2022/10/05 02:15:58;;;;;;;1999.90;999.90;;;;;;;;;;5032211;28;20225;-66
2022/10/05 02:18:48;;;;;;;1999.90;999.90;;;;;;;;;;5029676;28;20402;-65
2022/10/05 02:21:34;;;;;;;1999.90;999.90;;;;;;;;;;5032180;28;20203;-65
2022/10/05 02:24:22;;;;;;;1999.90;999.90;;;;;;;;;;5024907;28;20234;-65
2022/10/05 02:27:08;;;;;;;1999.90;999.90;;;;;;;;;;5028730;28;20325;-65
2022/10/05 02:29:55;;;;;;;1999.90;999.90;;;;;;;;;;5027534;28;20812;-66
2022/10/05 02:32:43;;;;;;;1999.90;999.90;;;;;;;;;;5013486;28;20206;-66
2022/10/05 02:35:29;;;;;;;1999.90;999.90;;;;;;;;;;5013148;28;20211;-66
2022/10/05 02:38:18;;;;;;;1999.90;999.90;;;;;;;;;;5013234;28;20218;-65
2022/10/05 02:41:08;;;;;;;1999.90;999.90;;;;;;;;;;5013051;28;20281;-63
2022/10/05 02:43:55;;;;;;;1999.90;999.90;;;;;;;;;;5027850;28;20300;-66
2022/10/05 02:46:43;;;;;;;1999.90;999.90;;;;;;;;;;5031814;28;20201;-65
2022/10/05 02:49:35;;;;;;;1999.90;999.90;;;;;;;;;;5031387;28;20303;-66
2022/10/05 02:52:25;;;;;;;1999.90;999.90;;;;;;;;;;5031445;28;20205;-66
2022/10/05 02:55:17;;;;;;;1999.90;999.90;;;;;;;;;;5031388;28;20721;-65
2022/10/05 02:58:05;;;;;;;1999.90;999.90;;;;;;;;;;5031518;28;20209;-65
2022/10/05 03:00:54;;;;;;;1999.90;999.90;;;;;;;;;;5021169;28;20719;-67
2022/10/05 03:03:42;;;;;;;1999.90;999.90;;;;;;;;;;5015418;28;20721;-67
2022/10/05 03:06:30;;;;;;;1999.90;999.90;;;;;;;;;;5027425;28;20225;-66
2022/10/05 03:09:17;;;;;;;1999.90;999.90;;;;;;;;;;5032713;28;20222;-67
2022/10/05 03:12:08;;;;;;;1999.90;999.90;;;;;;;;;;5013476;28;20214;-67
2022/10/05 03:15:01;;;;;;;1999.90;999.90;;;;;;;;;;5012705;28;20350;-66
2022/10/05 03:17:49;;;;;;;1999.90;999.90;;;;;;;;;;5012406;28;20571;-67
2022/10/05 03:20:40;;;;;;;1999.90;999.90;;;;;;;;;;5013257;28;20403;-67
2022/10/05 03:23:32;;;;;;;1999.90;999.90;;;;;;;;;;5024286;28;20326;-66
2022/10/05 03:26:23;;;;;;;1999.90;999.90;;;;;;;;;;5028349;28;20202;-65
2022/10/05 03:29:15;;;;;;;1999.90;999.90;;;;;;;;;;5011613;28;20411;-65
2022/10/05 03:32:03;;;;;;;1999.90;999.90;;;;;;;;;;5018062;28;20213;-65
2022/10/05 03:34:52;;;;;;;1999.90;999.90;;;;;;;;;;5019148;28;20225;-65
2022/10/05 03:37:43;;;;;;;1999.90;999.90;;;;;;;;;;5032621;28;20292;-66
2022/10/05 03:40:31;;;;;;;1999.90;999.90;;;;;;;;;;5026576;28;20260;-66
2022/10/05 03:43:24;;;;;;;1999.90;999.90;;;;;;;;;;5030604;28;20234;-66
2022/10/05 03:46:13;;;;;;;1999.90;999.90;;;;;;;;;;5023601;28;20209;-66
2022/10/05 03:49:01;;;;;;;1999.90;999.90;;;;;;;;;;5031374;28;20205;-67
2022/10/05 03:51:50;;;;;;;1999.90;999.90;;;;;;;;;;5030473;28;20712;-66
2022/10/05 03:54:38;;;;;;;1999.90;999.90;;;;;;;;;;5027479;28;20248;-65
2022/10/05 03:57:24;;;;;;;1999.90;999.90;;;;;;;;;;5023567;28;20207;-66
2022/10/05 04:00:14;;;;;;;1999.90;999.90;;;;;;;;;;5028309;28;20345;-66
2022/10/05 04:03:02;;;;;;;1999.90;999.90;;;;;;;;;;5015648;28;20261;-66
2022/10/05 04:05:50;;;;;;;1999.90;999.90;;;;;;;;;;5011226;28;20221;-66
2022/10/05 04:08:38;;;;;;;1999.90;999.90;;;;;;;;;;5011883;28;20210;-66
2022/10/05 04:11:26;;;;;;;1999.90;999.90;;;;;;;;;;5013944;28;20230;-67
2022/10/05 04:14:14;;;;;;;1999.90;999.90;;;;;;;;;;5028813;28;20225;-67
2022/10/05 04:17:02;;;;;;;1999.90;999.90;;;;;;;;;;5015906;28;20241;-66
2022/10/05 04:19:53;;;;;;;1999.90;999.90;;;;;;;;;;5027872;28;20330;-67
2022/10/05 04:22:40;;;;;;;1999.90;999.90;;;;;;;;;;5022344;28;20222;-67
2022/10/05 04:25:28;;;;;;;1999.90;999.90;;;;;;;;;;5029909;28;20213;-66
2022/10/05 04:28:17;;;;;;;1999.90;999.90;;;;;;;;;;5031984;28;20779;-67
2022/10/05 04:31:03;;;;;;;1999.90;999.90;;;;;;;;;;5029273;28;20233;-67
2022/10/05 04:34:04;;;;;;;1999.90;999.90;;;;;;;;;;5034379;28;20229;-67
2022/10/05 04:36:56;;;;;;;1999.90;999.90;;;;;;;;;;5027955;28;20225;-66
2022/10/05 04:39:45;;;;;;;1999.90;999.90;;;;;;;;;;5034772;28;20434;-67
2022/10/05 04:42:33;;;;;;;1999.90;999.90;;;;;;;;;;5031110;28;20210;-67
2022/10/05 04:45:26;;;;;;;1999.90;999.90;;;;;;;;;;5035591;28;20356;-67
2022/10/05 04:48:20;;;;;;;1999.90;999.90;;;;;;;;;;5040266;28;20690;-67
2022/10/05 04:51:16;;;;;;;1999.90;999.90;;;;;;;;;;5036749;28;20289;-67
2022/10/05 04:54:06;;;;;;;1999.90;999.90;;;;;;;;;;5042681;28;20299;-67
2022/10/05 04:56:52;;;;;;;1999.90;999.90;;;;;;;;;;5035328;28;20209;-67
2022/10/05 04:59:53;;;;;;;1999.90;999.90;;;;;;;;;;5035463;28;20209;-67
2022/10/05 05:02:44;;;;;;;1999.90;999.90;;;;;;;;;;5032351;28;20205;-67
2022/10/05 05:05:34;;;;;;;1999.90;999.90;;;;;;;;;;5028581;28;20595;-66
2022/10/05 05:08:26;;;;;;;1999.90;999.90;;;;;;;;;;5036465;28;20289;-67
2022/10/05 05:11:17;;;;;;;1999.90;999.90;;;;;;;;;;5035077;28;20222;-67
2022/10/05 05:14:19;;;;;;;1999.90;999.90;;;;;;;;;;5037796;28;20268;-66
2022/10/05 05:17:10;;;;;;;1999.90;999.90;;;;;;;;;;5034298;28;20202;-66
2022/10/05 05:19:59;;;;;;;1999.90;999.90;;;;;;;;;;5034934;28;20688;-65
2022/10/05 05:22:47;;;;;;;1999.90;999.90;;;;;;;;;;5038211;28;20212;-66
2022/10/05 05:25:37;;;;;;;1999.90;999.90;;;;;;;;;;5034570;28;20214;-66
2022/10/05 05:28:24;;;;;;;1999.90;999.90;;;;;;;;;;5040264;28;20209;-66
2022/10/05 05:31:12;;;;;;;1999.90;999.90;;;;;;;;;;5033424;28;20540;-66
2022/10/05 05:34:01;;;;;;;1999.90;999.90;;;;;;;;;;5041519;28;20233;-68
2022/10/05 05:36:52;;;;;;;1999.90;999.90;;;;;;;;;;5034992;28;20672;-68
2022/10/05 05:39:40;;;;;;;1999.90;999.90;;;;;;;;;;5029298;28;20198;-66
2022/10/05 05:42:33;;;;;;;1999.90;999.90;;;;;;;;;;5020575;28;20288;-66
2022/10/05 05:45:22;;;;;;;1999.90;999.90;;;;;;;;;;5034440;28;20607;-66
2022/10/05 05:48:15;;;;;;;1999.90;999.90;;;;;;;;;;5034909;28;20296;-66
2022/10/05 05:51:01;;;;;;;1999.90;999.90;;;;;;;;;;5033092;28;20801;-67
2022/10/05 05:53:48;;;;;;;1999.90;999.90;;;;;;;;;;5035867;28;20832;-67
2022/10/05 05:56:35;;;;;;;1999.90;999.90;;;;;;;;;;5015798;28;20203;-65
2022/10/05 05:59:24;;;;;;;1999.90;999.90;;;;;;;;;;5025754;28;20797;-67
2022/10/05 06:02:12;;;;;;;1999.90;999.90;;;;;;;;;;5037324;28;20194;-67
2022/10/05 06:05:00;;;;;;;1999.90;999.90;;;;;;;;;;5033609;28;20241;-67
2022/10/05 06:07:46;;;;;;;1999.90;999.90;;;;;;;;;;5038753;28;20304;-67
2022/10/05 06:10:33;;;;;;;1999.90;999.90;;;;;;;;;;5027783;28;20593;-67
2022/10/05 06:13:21;;;;;;;1999.90;999.90;;;;;;;;;;5039329;28;20333;-66
2022/10/05 06:16:12;;;;;;;1999.90;999.90;;;;;;;;;;5033023;28;20628;-66
2022/10/05 06:18:59;;;;;;;1999.90;999.90;;;;;;;;;;5035012;28;20321;-65
2022/10/05 06:21:45;;;;;;;1999.90;999.90;;;;;;;;;;5035113;28;20224;-66
2022/10/05 06:24:33;;;;;;;1999.90;999.90;;;;;;;;;;5033665;28;20273;-66
2022/10/05 06:27:26;;;;;;;1999.90;999.90;;;;;;;;;;5033193;28;20668;-66
2022/10/05 06:30:13;;;;;;;1999.90;999.90;;;;;;;;;;5029238;28;20213;-66
2022/10/05 06:33:04;;;;;;;1999.90;999.90;;;;;;;;;;5033805;28;20232;-65
2022/10/05 06:35:59;;;;;;;1999.90;999.90;;;;;;;;;;5028731;28;20403;-66
2022/10/05 06:39:02;;;;;;;1999.90;999.90;;;;;;;;;;5025829;28;20213;-66
2022/10/05 06:41:51;;;;;;;1999.90;999.90;;;;;;;;;;5028596;28;20280;-66
2022/10/05 06:44:39;;;;;;;1999.90;999.90;;;;;;;;;;5017854;28;20312;-66
2022/10/05 06:47:28;;;;;;;1999.90;999.90;;;;;;;;;;5013209;28;20577;-66
2022/10/05 06:50:17;;;;;;;1999.90;999.90;;;;;;;;;;5029653;28;20703;-66
2022/10/05 06:53:17;;;;;;;1999.90;999.90;;;;;;;;;;5019141;28;20214;-66
2022/10/05 06:56:07;;;;;;;1999.90;999.90;;;;;;;;;;5014394;28;20313;-66
2022/10/05 06:58:56;;;;;;;1999.90;999.90;;;;;;;;;;5012992;28;20400;-66
2022/10/05 07:01:47;;;;;;;1999.90;999.90;;;;;;;;;;5028484;28;20684;-66
2022/10/05 07:04:48;;;;;;;1999.90;999.90;;;;;;;;;;5030699;28;20716;-64
2022/10/05 07:07:42;;;;;;;1999.90;999.90;;;;;;;;;;5029943;28;20573;-66
2022/10/05 07:10:31;;;;;;;1999.90;999.90;;;;;;;;;;5031232;28;20221;-66
2022/10/05 07:13:33;;;;;;;1999.90;999.90;;;;;;;;;;5029913;28;20230;-65
2022/10/05 07:16:22;;;;;;;1999.90;999.90;;;;;;;;;;5030799;28;20209;-65
2022/10/05 07:19:12;;;;;;;1999.90;999.90;;;;;;;;;;5032762;28;20277;-66
2022/10/05 07:22:02;;;;;;;1999.90;999.90;;;;;;;;;;5036036;28;20198;-67
2022/10/05 07:24:56;;;;;;;1999.90;999.90;;;;;;;;;;5037224;28;20732;-66
2022/10/05 07:27:45;;;;;;;1999.90;999.90;;;;;;;;;;5034005;28;20673;-66
2022/10/05 07:30:31;;;;;;;1999.90;999.90;;;;;;;;;;5030602;28;20356;-67
2022/10/05 07:33:20;;;;;;;1999.90;999.90;;;;;;;;;;5039393;28;20228;-66
2022/10/05 07:39:16;;;;;;;1999.90;999.90;;;;;;;;;;5031549;28;20248;-66
2022/10/05 07:42:09;;;;;;;1999.90;999.90;;;;;;;;;;5034594;28;20226;-66
2022/10/05 07:44:56;;;;;;;1999.90;999.90;;;;;;;;;;5030187;28;20731;-67
2022/10/05 07:47:46;;;;;;;1999.90;999.90;;;;;;;;;;5027214;28;20692;-67
2022/10/05 07:50:35;;;;;;;1999.90;999.90;;;;;;;;;;5031241;28;20206;-66
2022/10/05 07:53:24;;;;;;;1999.90;999.90;;;;;;;;;;5027341;28;20326;-66
2022/10/05 07:56:13;;;;;;;1999.90;999.90;;;;;;;;;;5029852;28;20288;-67
2022/10/05 07:59:06;;;;;;;1999.90;999.90;;;;;;;;;;5027355;28;20682;-65
2022/10/05 08:01:55;;;;;;;1999.90;999.90;;;;;;;;;;5030640;28;20206;-66
2022/10/05 08:04:44;;;;;;;1999.90;999.90;;;;;;;;;;5025486;28;20241;-66
2022/10/05 08:07:30;;;;;;;1999.90;999.90;;;;;;;;;;5031555;28;20376;-66
2022/10/05 08:10:25;;;;;;;1999.90;999.90;;;;;;;;;;5034353;28;20337;-66
2022/10/05 08:13:14;;;;;;;1999.90;999.90;;;;;;;;;;5031540;28;20213;-67
2022/10/05 08:16:02;;;;;;;1999.90;999.90;;;;;;;;;;5034274;28;20300;-66
2022/10/05 08:18:54;;;;;;;1999.90;999.90;;;;;;;;;;5033862;28;20217;-67
2022/10/05 08:21:41;;;;;;;1999.90;999.90;;;;;;;;;;5029906;28;20213;-66
2022/10/05 08:24:34;;;;;;;1999.90;999.90;;;;;;;;;;5012886;28;20237;-66
2022/10/05 08:27:23;;;;;;;1999.90;999.90;;;;;;;;;;5023817;28;20330;-67
2022/10/05 08:30:10;;;;;;;1999.90;999.90;;;;;;;;;;5035142;28;20244;-66
2022/10/05 08:33:02;;;;;;;1999.90;999.90;;;;;;;;;;5031421;28;20202;-67
2022/10/05 08:35:54;;;;;;;1999.90;999.90;;;;;;;;;;5035662;28;20230;-67
2022/10/05 08:38:39;;;;;;;1999.90;999.90;;;;;;;;;;5026483;28;20288;-67
2022/10/05 08:41:36;;;;;;;1999.90;999.90;;;;;;;;;;5037443;28;20691;-67
2022/10/05 08:44:52;;;;;;;1999.90;999.90;;;;;;;;;;5017122;28;20311;-67
2022/10/05 08:47:54;;;;;;;1999.90;999.90;;;;;;;;;;4946018;29;20780;-67
2022/10/05 08:51:06;;;;;;;1999.90;999.90;;;;;;;;;;5038345;28;20275;-67
2022/10/05 08:54:06;;;;;;;1999.90;999.90;;;;;;;;;;4985912;28;20229;-67
2022/10/05 08:57:02;;;;;;;1999.90;999.90;;;;;;;;;;5028961;28;20281;-68
2022/10/05 08:59:58;;;;;;;1999.90;999.90;;;;;;;;;;5021601;28;20250;-67
2022/10/05 09:02:55;;;;;;;1999.90;999.90;;;;;;;;;;5030854;28;20206;-68
2022/10/05 09:05:59;;;;;;;1999.90;999.90;;;;;;;;;;5024159;28;20229;-68
2022/10/05 09:08:58;;;;;;;1999.90;999.90;;;;;;;;;;5030068;28;20226;-68
2022/10/05 09:11:47;;;;;;;1999.90;999.90;;;;;;;;;;5028409;28;20591;-68
2022/10/05 09:14:38;;;;;;;1999.90;999.90;;;;;;;;;;5021849;28;20595;-69
2022/10/05 09:17:39;;;;;;;1999.90;999.90;;;;;;;;;;5030957;28;20466;-68
2022/10/05 09:20:30;;;;;;;1999.90;999.90;;;;;;;;;;5035451;28;20213;-69
2022/10/05 09:23:22;;;;;;;1999.90;999.90;;;;;;;;;;5029980;28;20218;-69
2022/10/05 09:26:08;;;;;;;1999.90;999.90;;;;;;;;;;5028101;28;20296;-68
2022/10/05 09:29:01;;;;;;;1999.90;999.90;;;;;;;;;;5032481;28;20230;-68
2022/10/05 09:31:56;;;;;;;1999.90;999.90;;;;;;;;;;5026258;28;20214;-69
2022/10/05 09:34:54;;;;;;;1999.90;999.90;;;;;;;;;;5033209;28;20239;-69
2022/10/05 09:38:07;;;;;;;1999.90;999.90;;;;;;;;;;5029280;28;20321;-68
2022/10/05 09:41:21;;;;;;;1999.90;999.90;;;;;;;;;;5033287;28;20218;-69
2022/10/05 09:44:18;;;;;;;1999.90;999.90;;;;;;;;;;5027852;28;20393;-68
2022/10/05 09:47:33;;;;;;;1999.90;999.90;;;;;;;;;;5033563;28;20199;-67
2022/10/05 09:50:45;;;;;;;1999.90;999.90;;;;;;;;;;5035554;28;20218;-67
2022/10/05 09:53:51;;;;;;;1999.90;999.90;;;;;;;;;;5036810;28;20225;-67
2022/10/05 09:56:54;;;;;;;1999.90;999.90;;;;;;;;;;5028991;28;20210;-68
2022/10/05 09:59:54;;;;;;;1999.90;999.90;;;;;;;;;;5030875;28;20245;-67
2022/10/05 10:02:51;;;;;;;1999.90;999.90;;;;;;;;;;5028485;28;20325;-67
2022/10/05 10:05:47;;;;;;;1999.90;999.90;;;;;;;;;;5021239;28;20689;-67
2022/10/05 10:08:38;;;;;;;1999.90;999.90;;;;;;;;;;5027754;28;20940;-69
2022/10/05 10:11:38;;;;;;;1999.90;999.90;;;;;;;;;;5033008;28;20918;-69
2022/10/05 10:14:39;;;;;;;1999.90;999.90;;;;;;;;;;5034750;28;20272;-67
2022/10/05 10:17:32;;;;;;;1999.90;999.90;;;;;;;;;;5033205;28;20329;-68
2022/10/05 10:20:24;;;;;;;1999.90;999.90;;;;;;;;;;5032865;28;20210;-68
2022/10/05 10:23:42;;;;;;;1999.90;999.90;;;;;;;;;;5036658;28;20202;-68
2022/10/05 10:26:48;;;;;;;1999.90;999.90;;;;;;;;;;4951408;28;20711;-68
2022/10/05 10:29:48;;;;;;;1999.90;999.90;;;;;;;;;;4952071;28;20953;-68
2022/10/05 10:32:55;;;;;;;1999.90;999.90;;;;;;;;;;5014504;28;20953;-70
2022/10/05 10:35:44;;;;;;;1999.90;999.90;;;;;;;;;;5005654;28;20380;-68
2022/10/05 10:38:32;;;;;;;1999.90;999.90;;;;;;;;;;5033275;28;20792;-69
2022/10/05 10:41:35;;;;;;;1999.90;999.90;;;;;;;;;;5035223;28;20335;-68
2022/10/05 10:44:38;;;;;;;1999.90;999.90;;;;;;;;;;5028153;28;20280;-68
2022/10/05 10:47:44;;;;;;;1999.90;999.90;;;;;;;;;;4995763;28;20213;-68
2022/10/05 10:50:48;;;;;;;1999.90;999.90;;;;;;;;;;5029836;28;20213;-69
2022/10/05 10:53:56;;;;;;;1999.90;999.90;;;;;;;;;;5033568;28;20226;-68
2022/10/05 10:56:47;;;;;;;1999.90;999.90;;;;;;;;;;5030548;28;20213;-67
2022/10/05 10:59:47;;;;;;;1999.90;999.90;;;;;;;;;;5033285;28;20677;-68
2022/10/05 11:02:50;;;;;;;1999.90;999.90;;;;;;;;;;5039300;28;20218;-68
2022/10/05 11:05:54;;;;;;;1999.90;999.90;;;;;;;;;;5040020;28;20580;-67
2022/10/05 11:08:58;;;;;;;1999.90;999.90;;;;;;;;;;5027450;28;20323;-69
2022/10/05 11:12:00;;;;;;;1999.90;999.90;;;;;;;;;;5032838;28;20252;-68
2022/10/05 11:14:54;;;;;;;1999.90;999.90;;;;;;;;;;5036269;28;20225;-66
2022/10/05 11:17:59;;;;;;;1999.90;999.90;;;;;;;;;;5033763;28;20434;-66
2022/10/05 11:20:56;;;;;;;1999.90;999.90;;;;;;;;;;5027696;28;20226;-67
2022/10/05 11:24:01;;;;;;;1999.90;999.90;;;;;;;;;;5027815;28;20221;-68
2022/10/05 11:27:02;;;;;;;1999.90;999.90;;;;;;;;;;5040154;28;20210;-67
2022/10/05 11:29:58;;;;;;;1999.90;999.90;;;;;;;;;;5035455;28;20196;-67
2022/10/05 11:32:57;;;;;;;1999.90;999.90;;;;;;;;;;5036019;28;20246;-68
2022/10/05 11:36:03;;;;;;;1999.90;999.90;;;;;;;;;;5017725;28;20283;-67
2022/10/05 11:39:18;;;;;;;1999.90;999.90;;;;;;;;;;5026814;28;20424;-67
2022/10/05 11:42:15;;;;;;;1999.90;999.90;;;;;;;;;;4951836;29;20257;-67
2022/10/05 11:45:21;;;;;;;1999.90;999.90;;;;;;;;;;5031796;28;20304;-67
2022/10/05 11:48:21;;;;;;;1999.90;999.90;;;;;;;;;;5026356;28;20748;-66
2022/10/05 11:51:21;;;;;;;1999.90;999.90;;;;;;;;;;5031717;28;20329;-67
2022/10/05 11:54:16;;;;;;;1999.90;999.90;;;;;;;;;;5016299;28;20228;-67
2022/10/05 11:57:03;;;;;;;1999.90;999.90;;;;;;;;;;5021496;28;20203;-66
2022/10/05 11:59:51;;;;;;;1999.90;999.90;;;;;;;;;;5012533;28;20716;-67
2022/10/05 12:02:45;;;;;;;1999.90;999.90;;;;;;;;;;5034123;28;20210;-68
2022/10/05 12:05:36;;;;;;;1999.90;999.90;;;;;;;;;;5033177;28;20214;-68
2022/10/05 12:08:28;;;;;;;1999.90;999.90;;;;;;;;;;5019594;28;20203;-68
2022/10/05 12:11:26;;;;;;;1999.90;999.90;;;;;;;;;;5032161;28;20289;-68
2022/10/05 12:14:16;;;;;;;1999.90;999.90;;;;;;;;;;5022812;28;20266;-68
2022/10/05 12:17:05;;;;;;;1999.90;999.90;;;;;;;;;;5030852;28;20199;-67
2022/10/05 12:19:54;;;;;;;1999.90;999.90;;;;;;;;;;5023757;28;20219;-68
2022/10/05 12:22:41;;;;;;;1999.90;999.90;;;;;;;;;;5026560;28;20292;-68
2022/10/05 12:25:30;;;;;;;1999.90;999.90;;;;;;;;;;5030753;28;20253;-69
2022/10/05 12:28:17;;;;;;;1999.90;999.90;;;;;;;;;;5030415;28;20426;-69
2022/10/05 12:31:14;;;;;;;1999.90;999.90;;;;;;;;;;5016616;28;20260;-69
2022/10/05 12:34:03;;;;;;;1999.90;999.90;;;;;;;;;;5013176;28;20698;-69
2022/10/05 12:36:51;;;;;;;1999.90;999.90;;;;;;;;;;5031951;28;20207;-69
2022/10/05 12:39:40;;;;;;;1999.90;999.90;;;;;;;;;;5031410;28;20249;-68
2022/10/05 12:42:30;;;;;;;1999.90;999.90;;;;;;;;;;5030656;28;20680;-69
2022/10/05 12:45:20;;;;;;;1999.90;999.90;;;;;;;;;;5031425;28;20227;-69
2022/10/05 12:48:19;;;;;;;1999.90;999.90;;;;;;;;;;5030116;28;20494;-70
2022/10/05 12:51:08;;;;;;;1999.90;999.90;;;;;;;;;;5031837;28;20565;-68
2022/10/05 12:53:57;;;;;;;1999.90;999.90;;;;;;;;;;5031058;28;20336;-69
2022/10/05 12:56:46;;;;;;;1999.90;999.90;;;;;;;;;;5031510;28;20297;-69
2022/10/05 12:59:35;;;;;;;1999.90;999.90;;;;;;;;;;5012109;28;20605;-69
2022/10/05 13:02:25;;;;;;;1999.90;999.90;;;;;;;;;;5011973;28;20224;-69
2022/10/05 13:05:19;;;;;;;1999.90;999.90;;;;;;;;;;5011207;28;20606;-69
2022/10/05 13:08:09;;;;;;;1999.90;999.90;;;;;;;;;;5011634;28;20201;-69
2022/10/05 13:11:01;;;;;;;1999.90;999.90;;;;;;;;;;5015036;28;20574;-69
2022/10/05 13:13:52;;;;;;;1999.90;999.90;;;;;;;;;;5015305;28;20232;-68
2022/10/05 13:16:40;;;;;;;1999.90;999.90;;;;;;;;;;5015153;28;20210;-70
2022/10/05 13:19:33;;;;;;;1999.90;999.90;;;;;;;;;;5015612;28;20202;-69
2022/10/05 13:22:25;;;;;;;1999.90;999.90;;;;;;;;;;5028445;28;20205;-70
2022/10/05 13:25:19;;;;;;;1999.90;999.90;;;;;;;;;;5034794;28;20243;-70
2022/10/05 13:28:11;;;;;;;1999.90;999.90;;;;;;;;;;5034821;28;20683;-69
2022/10/05 13:31:00;;;;;;;1999.90;999.90;;;;;;;;;;5041338;28;20215;-69
2022/10/05 13:33:55;;;;;;;1999.90;999.90;;;;;;;;;;5030138;28;20233;-69
2022/10/05 13:36:44;;;;;;;1999.90;999.90;;;;;;;;;;5019638;28;20428;-70
2022/10/05 13:39:39;;;;;;;1999.90;999.90;;;;;;;;;;5027966;28;20718;-69
2022/10/05 13:42:28;;;;;;;1999.90;999.90;;;;;;;;;;5024580;28;20257;-69
2022/10/05 13:45:15;;;;;;;1999.90;999.90;;;;;;;;;;5034511;28;20248;-69
2022/10/05 13:48:09;;;;;;;1999.90;999.90;;;;;;;;;;5034805;28;20588;-69
2022/10/05 13:51:00;;;;;;;1999.90;999.90;;;;;;;;;;5032739;28;20228;-70
2022/10/05 13:53:48;;;;;;;1999.90;999.90;;;;;;;;;;5034405;28;20230;-69
2022/10/05 13:56:33;;;;;;;1999.90;999.90;;;;;;;;;;5033341;28;20496;-69
2022/10/05 13:59:24;;;;;;;1999.90;999.90;;;;;;;;;;5034590;28;20210;-69
2022/10/05 14:02:10;;;;;;;1999.90;999.90;;;;;;;;;;5033821;28;20197;-68
2022/10/05 14:05:00;;;;;;;1999.90;999.90;;;;;;;;;;5030857;28;20641;-69
2022/10/05 14:07:50;;;;;;;1999.90;999.90;;;;;;;;;;5034413;28;20204;-69
2022/10/05 14:10:37;;;;;;;1999.90;999.90;;;;;;;;;;5034187;28;20279;-69
2022/10/05 14:13:25;;;;;;;1999.90;999.90;;;;;;;;;;5034134;28;20236;-70
2022/10/05 14:16:19;;;;;;;1999.90;999.90;;;;;;;;;;5033956;28;20212;-69
2022/10/05 14:19:15;;;;;;;1999.90;999.90;;;;;;;;;;5025043;28;20271;-69
2022/10/05 14:22:02;;;;;;;1999.90;999.90;;;;;;;;;;5030757;28;20737;-70
2022/10/05 14:24:49;;;;;;;1999.90;999.90;;;;;;;;;;5034976;28;20720;-69
2022/10/05 14:27:35;;;;;;;1999.90;999.90;;;;;;;;;;5029297;28;20801;-69
2022/10/05 14:30:22;;;;;;;1999.90;999.90;;;;;;;;;;5034077;28;20207;-69
2022/10/05 14:33:13;;;;;;;1999.90;999.90;;;;;;;;;;5033703;28;20614;-69
2022/10/05 14:35:58;;;;;;;1999.90;999.90;;;;;;;;;;5032219;28;20221;-69
2022/10/05 14:38:52;;;;;;;1999.90;999.90;;;;;;;;;;5029056;28;20610;-69
2022/10/05 14:41:42;;;;;;;1999.90;999.90;;;;;;;;;;5023349;28;20866;-71
2022/10/05 14:44:28;;;;;;;1999.90;999.90;;;;;;;;;;5025557;28;20417;-70
2022/10/05 14:47:19;;;;;;;1999.90;999.90;;;;;;;;;;5026965;28;20222;-70
2022/10/05 14:50:15;;;;;;;1999.90;999.90;;;;;;;;;;5031842;28;20215;-75
2022/10/05 14:53:09;;;;;;;1999.90;999.90;;;;;;;;;;5040082;28;20683;-69
2022/10/05 14:56:15;;;;;;;1999.90;999.90;;;;;;;;;;5033227;28;20214;-69
2022/10/05 14:59:21;;;;;;;1999.90;999.90;;;;;;;;;;5032201;28;20695;-71
2022/10/05 15:02:14;;;;;;;1999.90;999.90;;;;;;;;;;5040684;28;20210;-70
2022/10/05 15:05:01;;;;;;;1999.90;999.90;;;;;;;;;;5032721;28;20617;-70
2022/10/05 15:07:48;;;;;;;1999.90;999.90;;;;;;;;;;5032144;28;20208;-70
2022/10/05 15:10:36;;;;;;;1999.90;999.90;;;;;;;;;;5027064;28;20212;-70
2022/10/05 15:13:24;;;;;;;1999.90;999.90;;;;;;;;;;5033007;28;20251;-69
2022/10/05 15:16:13;;;;;;;1999.90;999.90;;;;;;;;;;5030312;28;20270;-70
2022/10/05 15:19:03;;;;;;;1999.90;999.90;;;;;;;;;;5034715;28;20224;-70
2022/10/05 15:21:54;;;;;;;1999.90;999.90;;;;;;;;;;5026506;28;20587;-68
2022/10/05 15:24:42;;;;;;;1999.90;999.90;;;;;;;;;;5030469;28;20221;-68
2022/10/05 15:27:30;;;;;;;1999.90;999.90;;;;;;;;;;5017562;28;20322;-68
2022/10/05 15:30:18;;;;;;;1999.90;999.90;;;;;;;;;;5012502;28;20208;-68
2022/10/05 15:33:09;;;;;;;1999.90;999.90;;;;;;;;;;5011273;28;20219;-68
2022/10/05 15:36:01;;;;;;;1999.90;999.90;;;;;;;;;;5012705;28;20346;-68
2022/10/05 15:38:51;;;;;;;1999.90;999.90;;;;;;;;;;5028044;28;20210;-68
2022/10/05 15:41:43;;;;;;;1999.90;999.90;;;;;;;;;;5034597;28;20204;-68
2022/10/05 15:44:38;;;;;;;1999.90;999.90;;;;;;;;;;5034644;28;20598;-69
2022/10/05 15:47:25;;;;;;;1999.90;999.90;;;;;;;;;;5037326;28;20206;-68
2022/10/05 15:50:15;;;;;;;1999.90;999.90;;;;;;;;;;5027029;28;20344;-70
2022/10/05 15:53:06;;;;;;;1999.90;999.90;;;;;;;;;;5029024;28;20488;-70
2022/10/05 15:55:54;;;;;;;1999.90;999.90;;;;;;;;;;5034407;28;20218;-70
2022/10/05 15:58:44;;;;;;;1999.90;999.90;;;;;;;;;;5026949;28;20211;-69
2022/10/05 16:01:39;;;;;;;1999.90;999.90;;;;;;;;;;5032784;28;20590;-69